createdAt,value
2023-05-20T00:00:28.644Z,58.73
2023-05-20T00:01:28.658Z,58.55
2023-05-20T00:02:28.803Z,58.51
2023-05-20T00:03:28.856Z,58.42
2023-05-20T00:04:28.847Z,58.42
2023-05-20T00:05:28.887Z,58.38
2023-05-20T00:06:28.896Z,58.47
2023-05-20T00:07:28.981Z,58.51
2023-05-20T00:08:28.962Z,58.47
2023-05-20T00:09:29.035Z,58.44
2023-05-20T00:10:29.087Z,58.34
2023-05-20T00:11:29.123Z,58.43
2023-05-20T00:12:29.161Z,58.37
2023-05-20T00:13:29.210Z,58.36
2023-05-20T00:14:29.221Z,58.44
2023-05-20T00:15:29.293Z,58.47
2023-05-20T00:16:29.417Z,58.46
2023-05-20T00:17:29.466Z,58.46
2023-05-20T00:18:29.449Z,58.49
2023-05-20T00:19:29.581Z,58.51
2023-05-20T00:20:29.509Z,58.43
2023-05-20T00:21:29.627Z,58.54
2023-05-20T00:22:29.591Z,58.49
2023-05-20T00:23:29.690Z,58.32
2023-05-20T00:24:29.745Z,58.24
2023-05-20T00:25:29.798Z,58.22
2023-05-20T00:26:29.823Z,58.30
2023-05-20T00:27:29.857Z,58.38
2023-05-20T00:28:29.887Z,58.41
2023-05-20T00:29:29.889Z,58.47
2023-05-20T00:30:29.905Z,58.43
2023-05-20T00:31:29.925Z,58.38
2023-05-20T00:32:30.038Z,58.48
2023-05-20T00:33:29.968Z,58.39
2023-05-20T00:34:29.986Z,58.77
2023-05-20T00:35:30.014Z,58.64
2023-05-20T00:36:29.974Z,58.64
2023-05-20T00:37:30.001Z,58.67
2023-05-20T00:38:30.231Z,58.69
2023-05-20T00:39:30.038Z,59.09
2023-05-20T00:40:30.033Z,59.11
2023-05-20T00:41:30.065Z,59.49
2023-05-20T00:42:30.033Z,59.53
2023-05-20T00:43:30.055Z,59.43
2023-05-20T00:44:30.125Z,59.33
2023-05-20T00:45:30.100Z,59.28
2023-05-20T00:46:30.236Z,59.22
2023-05-20T00:47:30.135Z,59.21
2023-05-20T00:48:30.171Z,59.12
2023-05-20T00:49:30.171Z,59.14
2023-05-20T00:50:30.202Z,59.19
2023-05-20T00:51:30.240Z,59.25
2023-05-20T00:52:30.247Z,59.16
2023-05-20T00:53:30.288Z,59.17
2023-05-20T00:54:30.278Z,59.18
2023-05-20T00:55:30.311Z,59.10
2023-05-20T00:56:30.304Z,59.01
2023-05-20T00:57:30.338Z,58.92
2023-05-20T00:58:30.344Z,58.99
2023-05-20T00:59:30.397Z,59.05
2023-05-20T01:00:30.366Z,58.98
2023-05-20T01:01:30.449Z,59.00
2023-05-20T01:02:30.522Z,58.97
2023-05-20T01:03:30.879Z,58.95
2023-05-20T01:04:30.482Z,58.89
2023-05-20T01:05:30.620Z,58.98
2023-05-20T01:06:30.540Z,58.99
2023-05-20T01:07:30.593Z,59.10
2023-05-20T01:08:30.629Z,58.97
2023-05-20T01:09:30.625Z,58.94
2023-05-20T01:10:30.702Z,58.88
2023-05-20T01:11:30.717Z,58.91
2023-05-20T01:12:30.751Z,59.19
2023-05-20T01:13:30.786Z,59.15
2023-05-20T01:14:30.796Z,59.02
2023-05-20T01:15:30.870Z,58.98
2023-05-20T01:16:30.930Z,59.22
2023-05-20T01:17:30.975Z,59.65
2023-05-20T01:18:31.003Z,59.73
2023-05-20T01:19:31.038Z,59.64
2023-05-20T01:20:31.171Z,59.54
2023-05-20T01:21:31.103Z,59.52
2023-05-20T01:22:31.168Z,59.91
2023-05-20T01:23:31.217Z,59.84
2023-05-20T01:24:31.179Z,59.87
2023-05-20T01:25:31.294Z,59.89
2023-05-20T01:26:31.269Z,59.92
2023-05-20T01:27:31.345Z,59.84
2023-05-20T01:28:31.785Z,59.75
2023-05-20T01:29:31.447Z,59.60
2023-05-20T01:30:31.569Z,59.46
2023-05-20T01:31:31.538Z,59.45
2023-05-20T01:32:31.587Z,59.31
2023-05-20T01:33:31.629Z,59.89
2023-05-20T01:34:31.652Z,60.11
2023-05-20T01:35:31.713Z,60.00
2023-05-20T01:36:31.753Z,60.45
2023-05-20T01:37:31.820Z,60.38
2023-05-20T01:38:31.901Z,60.19
2023-05-20T01:39:31.956Z,60.15
2023-05-20T01:40:32.010Z,60.28
2023-05-20T01:41:32.066Z,60.22
2023-05-20T01:42:32.164Z,60.03
2023-05-20T01:43:32.193Z,59.99
2023-05-20T01:44:32.236Z,59.98
2023-05-20T01:45:32.514Z,59.86
2023-05-20T01:46:32.426Z,59.79
2023-05-20T01:47:32.428Z,59.84
2023-05-20T01:48:32.520Z,59.81
2023-05-20T01:49:32.508Z,59.73
2023-05-20T01:50:32.638Z,59.64
2023-05-20T01:51:32.635Z,59.63
2023-05-20T01:52:32.716Z,59.67
2023-05-20T01:53:32.710Z,59.75
2023-05-20T01:54:32.756Z,59.71
2023-05-20T01:55:32.942Z,59.58
2023-05-20T01:56:32.909Z,59.59
2023-05-20T01:57:33.041Z,59.45
2023-05-20T01:58:33.122Z,59.48
2023-05-20T01:59:33.238Z,59.40
2023-05-20T02:00:33.281Z,59.47
2023-05-20T02:01:33.325Z,59.41
2023-05-20T02:02:33.529Z,59.42
2023-05-20T02:03:33.471Z,59.52
2023-05-20T02:04:33.545Z,59.49
2023-05-20T02:05:33.834Z,59.54
2023-05-20T02:06:33.654Z,59.71
2023-05-20T02:07:33.704Z,59.67
2023-05-20T02:08:33.767Z,59.72
2023-05-20T02:09:33.818Z,59.85
2023-05-20T02:10:33.897Z,59.90
2023-05-20T02:11:34.003Z,59.95
2023-05-20T02:12:33.999Z,60.13
2023-05-20T02:13:34.076Z,60.24
2023-05-20T02:14:34.130Z,60.30
2023-05-20T02:15:34.620Z,60.29
2023-05-20T02:16:34.355Z,60.28
2023-05-20T02:17:34.315Z,60.26
2023-05-20T02:18:34.409Z,60.33
2023-05-20T02:19:34.402Z,60.25
2023-05-20T02:20:34.499Z,60.19
2023-05-20T02:21:34.523Z,60.24
2023-05-20T02:22:34.615Z,60.23
2023-05-20T02:23:34.653Z,60.21
2023-05-20T02:24:34.704Z,60.22
2023-05-20T02:25:35.018Z,60.23
2023-05-20T02:26:34.837Z,60.29
2023-05-20T02:27:34.958Z,60.26
2023-05-20T02:28:35.062Z,60.36
2023-05-20T02:29:35.155Z,60.35
2023-05-20T02:30:35.768Z,60.46
2023-05-20T02:31:35.284Z,60.39
2023-05-20T02:32:35.360Z,60.51
2023-05-20T02:33:35.389Z,60.61
2023-05-20T02:34:35.328Z,60.55
2023-05-20T02:35:35.567Z,60.56
2023-05-20T02:36:35.420Z,60.60
2023-05-20T02:37:35.474Z,60.56
2023-05-20T02:38:35.485Z,60.54
2023-05-20T02:39:35.554Z,60.67
2023-05-20T02:40:35.691Z,60.76
2023-05-20T02:41:35.768Z,60.72
2023-05-20T02:42:35.686Z,60.64
2023-05-20T02:43:35.622Z,60.60
2023-05-20T02:44:35.669Z,60.56
2023-05-20T02:45:35.773Z,60.56
2023-05-20T02:46:35.790Z,60.65
2023-05-20T02:47:35.748Z,60.67
2023-05-20T02:48:35.725Z,60.91
2023-05-20T02:49:35.765Z,61.03
2023-05-20T02:50:35.813Z,61.05
2023-05-20T02:51:35.828Z,61.03
2023-05-20T02:52:35.956Z,60.98
2023-05-20T02:53:36.063Z,60.89
2023-05-20T02:54:36.117Z,60.86
2023-05-20T02:55:36.355Z,60.80
2023-05-20T02:56:36.210Z,60.77
2023-05-20T02:57:36.203Z,60.75
2023-05-20T02:58:36.791Z,60.85
2023-05-20T02:59:36.270Z,60.87
2023-05-20T03:00:37.257Z,60.86
2023-05-20T03:01:36.379Z,60.98
2023-05-20T03:02:36.321Z,60.83
2023-05-20T03:03:36.777Z,60.72
2023-05-20T03:04:36.283Z,60.59
2023-05-20T03:05:36.336Z,60.59
2023-05-20T03:06:36.279Z,60.69
2023-05-20T03:07:36.262Z,60.67
2023-05-20T03:08:36.346Z,60.65
2023-05-20T03:09:36.354Z,60.73
2023-05-20T03:10:36.453Z,60.73
2023-05-20T03:11:36.458Z,60.66
2023-05-20T03:12:36.470Z,60.56
2023-05-20T03:13:36.494Z,60.52
2023-05-20T03:14:36.516Z,60.44
2023-05-20T03:15:36.762Z,60.41
2023-05-20T03:16:36.495Z,60.45
2023-05-20T03:17:36.433Z,60.43
2023-05-20T03:18:36.457Z,60.33
2023-05-20T03:19:36.431Z,60.29
2023-05-20T03:20:36.539Z,60.25
2023-05-20T03:21:36.629Z,60.12
2023-05-20T03:22:36.734Z,60.10
2023-05-20T03:23:36.843Z,60.17
2023-05-20T03:24:36.975Z,60.15
2023-05-20T03:25:36.962Z,60.26
2023-05-20T03:26:36.979Z,60.22
2023-05-20T03:27:36.949Z,60.15
2023-05-20T03:28:37.320Z,60.10
2023-05-20T03:29:36.974Z,60.10
2023-05-20T03:30:37.010Z,60.01
2023-05-20T03:31:37.074Z,60.00
2023-05-20T03:32:37.106Z,60.00
2023-05-20T03:33:37.337Z,60.02
2023-05-20T03:34:37.055Z,60.02
2023-05-20T03:35:37.344Z,59.96
2023-05-20T03:36:37.037Z,60.04
2023-05-20T03:37:37.065Z,60.08
2023-05-20T03:38:37.045Z,60.28
2023-05-20T03:39:37.075Z,60.26
2023-05-20T03:40:37.035Z,60.46
2023-05-20T03:41:37.119Z,60.47
2023-05-20T03:42:37.146Z,60.39
2023-05-20T03:43:37.154Z,60.41
2023-05-20T03:44:37.136Z,60.46
2023-05-20T03:45:37.505Z,60.48
2023-05-20T03:46:37.186Z,60.55
2023-05-20T03:47:37.195Z,60.52
2023-05-20T03:48:37.190Z,60.50
2023-05-20T03:49:37.166Z,60.48
2023-05-20T03:50:37.168Z,60.61
2023-05-20T03:51:37.179Z,60.48
2023-05-20T03:52:37.192Z,60.43
2023-05-20T03:53:37.204Z,60.37
2023-05-20T03:54:37.179Z,60.34
2023-05-20T03:55:37.274Z,60.44
2023-05-20T03:56:37.177Z,60.59
2023-05-20T03:57:37.168Z,60.53
2023-05-20T03:58:37.194Z,60.62
2023-05-20T03:59:37.211Z,60.63
2023-05-20T04:00:37.209Z,60.64
2023-05-20T04:01:37.267Z,60.61
2023-05-20T04:02:37.589Z,60.56
2023-05-20T04:03:37.519Z,60.63
2023-05-20T04:04:37.367Z,60.57
2023-05-20T04:05:37.479Z,60.74
2023-05-20T04:06:37.406Z,60.71
2023-05-20T04:07:37.448Z,60.85
2023-05-20T04:08:37.412Z,60.91
2023-05-20T04:09:37.398Z,61.14
2023-05-20T04:10:37.443Z,61.29
2023-05-20T04:11:37.411Z,61.30
2023-05-20T04:12:37.415Z,61.48
2023-05-20T04:13:37.420Z,61.95
2023-05-20T04:14:37.428Z,61.86
2023-05-20T04:15:37.416Z,61.81
2023-05-20T04:16:37.544Z,61.95
2023-05-20T04:17:37.480Z,61.84
2023-05-20T04:18:37.468Z,61.75
2023-05-20T04:19:37.471Z,61.63
2023-05-20T04:20:37.468Z,61.66
2023-05-20T04:21:37.488Z,61.54
2023-05-20T04:22:37.463Z,61.38
2023-05-20T04:23:37.518Z,61.60
2023-05-20T04:24:37.498Z,61.51
2023-05-20T04:25:37.732Z,61.56
2023-05-20T04:26:37.499Z,61.42
2023-05-20T04:27:37.511Z,61.28
2023-05-20T04:28:37.543Z,61.22
2023-05-20T04:29:37.535Z,61.15
2023-05-20T04:30:37.544Z,61.07
2023-05-20T04:31:37.599Z,61.13
2023-05-20T04:32:37.714Z,61.18
2023-05-20T04:33:37.833Z,61.15
2023-05-20T04:34:37.620Z,61.15
2023-05-20T04:35:37.700Z,61.08
2023-05-20T04:36:37.606Z,61.08
2023-05-20T04:37:37.585Z,61.01
2023-05-20T04:38:37.618Z,61.02
2023-05-20T04:39:37.635Z,61.00
2023-05-20T04:40:37.676Z,61.03
2023-05-20T04:41:37.676Z,61.01
2023-05-20T04:42:37.733Z,60.96
2023-05-20T04:43:37.686Z,60.99
2023-05-20T04:44:37.760Z,61.02
2023-05-20T04:45:37.811Z,60.92
2023-05-20T04:46:37.837Z,60.81
2023-05-20T04:47:37.879Z,60.81
2023-05-20T04:48:37.788Z,60.77
2023-05-20T04:49:37.844Z,60.76
2023-05-20T04:50:37.842Z,60.70
2023-05-20T04:51:37.825Z,60.75
2023-05-20T04:52:37.847Z,60.81
2023-05-20T04:53:37.865Z,60.80
2023-05-20T04:54:37.882Z,60.79
2023-05-20T04:55:37.945Z,60.69
2023-05-20T04:56:38.039Z,60.77
2023-05-20T04:57:38.045Z,60.90
2023-05-20T04:58:38.037Z,60.97
2023-05-20T04:59:38.006Z,61.33
2023-05-20T05:00:38.026Z,61.48
2023-05-20T05:01:38.197Z,61.47
2023-05-20T05:02:38.255Z,61.41
2023-05-20T05:03:38.254Z,61.36
2023-05-20T05:04:38.265Z,61.33
2023-05-20T05:05:38.259Z,61.27
2023-05-20T05:06:38.239Z,61.16
2023-05-20T05:07:38.346Z,61.04
2023-05-20T05:08:38.331Z,61.12
2023-05-20T05:09:38.328Z,61.16
2023-05-20T05:10:38.305Z,61.12
2023-05-20T05:11:38.305Z,61.08
2023-05-20T05:12:38.348Z,60.97
2023-05-20T05:13:38.304Z,61.11
2023-05-20T05:14:38.416Z,61.26
2023-05-20T05:15:38.369Z,61.24
2023-05-20T05:16:38.330Z,61.21
2023-05-20T05:17:38.404Z,61.19
2023-05-20T05:18:38.395Z,61.11
2023-05-20T05:19:38.399Z,61.10
2023-05-20T05:20:38.548Z,61.11
2023-05-20T05:21:38.444Z,61.17
2023-05-20T05:22:38.477Z,61.21
2023-05-20T05:23:38.480Z,61.16
2023-05-20T05:24:38.539Z,61.12
2023-05-20T05:25:38.594Z,61.07
2023-05-20T05:26:38.627Z,61.42
2023-05-20T05:27:38.660Z,61.60
2023-05-20T05:28:38.683Z,61.76
2023-05-20T05:29:38.724Z,61.82
2023-05-20T05:30:38.766Z,61.58
2023-05-20T05:31:38.763Z,61.61
2023-05-20T05:32:38.854Z,61.59
2023-05-20T05:33:38.860Z,61.45
2023-05-20T05:34:38.934Z,61.49
2023-05-20T05:35:39.083Z,61.39
2023-05-20T05:36:39.135Z,61.24
2023-05-20T05:37:39.233Z,61.23
2023-05-20T05:38:39.264Z,61.09
2023-05-20T05:39:39.305Z,61.11
2023-05-20T05:40:39.340Z,61.01
2023-05-20T05:41:39.420Z,61.00
2023-05-20T05:42:39.485Z,60.98
2023-05-20T05:43:39.545Z,60.86
2023-05-20T05:44:39.593Z,61.02
2023-05-20T05:45:39.643Z,61.13
2023-05-20T05:46:39.747Z,61.06
2023-05-20T05:47:39.800Z,61.23
2023-05-20T05:48:39.885Z,61.05
2023-05-20T05:49:39.929Z,60.89
2023-05-20T05:50:39.961Z,60.95
2023-05-20T05:51:40.005Z,60.95
2023-05-20T05:52:40.000Z,60.95
2023-05-20T05:53:40.056Z,60.74
2023-05-20T05:54:40.086Z,60.55
2023-05-20T05:55:40.121Z,60.47
2023-05-20T05:56:40.189Z,60.32
2023-05-20T05:57:40.193Z,60.17
2023-05-20T05:58:40.251Z,60.04
2023-05-20T05:59:40.263Z,60.00
2023-05-20T06:00:40.306Z,60.05
2023-05-20T06:01:40.348Z,59.96
2023-05-20T06:02:40.468Z,59.67
2023-05-20T06:03:40.551Z,59.73
2023-05-20T06:04:40.423Z,59.56
2023-05-20T06:05:40.447Z,59.58
2023-05-20T06:06:40.449Z,59.70
2023-05-20T06:07:40.525Z,59.81
2023-05-20T06:08:40.827Z,59.85
2023-05-20T06:09:40.512Z,59.78
2023-05-20T06:10:40.503Z,59.86
2023-05-20T06:11:40.509Z,59.73
2023-05-20T06:12:40.615Z,59.47
2023-05-20T06:13:40.556Z,59.43
2023-05-20T06:14:40.549Z,59.41
2023-05-20T06:15:40.558Z,59.41
2023-05-20T06:16:40.617Z,59.55
2023-05-20T06:17:40.615Z,59.79
2023-05-20T06:18:40.632Z,59.47
2023-05-20T06:19:40.733Z,59.20
2023-05-20T06:20:40.613Z,59.21
2023-05-20T06:21:40.564Z,59.26
2023-05-20T06:22:40.587Z,59.11
2023-05-20T06:23:40.660Z,59.15
2023-05-20T06:24:40.676Z,59.30
2023-05-20T06:25:40.666Z,59.27
2023-05-20T06:26:40.661Z,58.97
2023-05-20T06:27:40.680Z,59.10
2023-05-20T06:28:40.685Z,59.16
2023-05-20T06:29:43.023Z,59.27
2023-05-20T06:30:40.764Z,59.37
2023-05-20T06:31:40.672Z,59.34
2023-05-20T06:32:40.736Z,59.22
2023-05-20T06:33:40.699Z,59.21
2023-05-20T06:34:40.637Z,59.07
2023-05-20T06:35:40.635Z,59.31
2023-05-20T06:36:40.640Z,59.15
2023-05-20T06:37:40.688Z,59.17
2023-05-20T06:38:40.700Z,59.19
2023-05-20T06:39:40.641Z,59.16
2023-05-20T06:40:40.652Z,59.12
2023-05-20T06:41:40.655Z,59.09
2023-05-20T06:42:40.591Z,59.19
2023-05-20T06:43:40.873Z,59.07
2023-05-20T06:44:40.635Z,59.00
2023-05-20T06:45:40.579Z,58.69
2023-05-20T06:46:40.647Z,58.67
2023-05-20T06:47:40.596Z,58.48
2023-05-20T06:48:40.548Z,58.45
2023-05-20T06:49:40.786Z,58.22
2023-05-20T06:50:40.554Z,58.01
2023-05-20T06:51:40.528Z,57.95
2023-05-20T06:52:40.514Z,58.22
2023-05-20T06:53:40.542Z,58.05
2023-05-20T06:54:40.506Z,57.88
2023-05-20T06:55:40.515Z,57.73
2023-05-20T06:56:40.490Z,57.55
2023-05-20T06:57:40.492Z,57.65
2023-05-20T06:58:40.509Z,57.74
2023-05-20T06:59:40.460Z,57.90
2023-05-20T07:00:40.469Z,57.95
2023-05-20T07:01:40.499Z,58.11
2023-05-20T07:02:40.462Z,57.97
2023-05-20T07:03:40.510Z,57.50
2023-05-20T07:04:40.415Z,57.30
2023-05-20T07:05:40.437Z,57.43
2023-05-20T07:06:40.421Z,57.55
2023-05-20T07:07:40.448Z,57.39
2023-05-20T07:08:40.442Z,56.98
2023-05-20T07:09:40.441Z,57.06
2023-05-20T07:10:40.385Z,57.04
2023-05-20T07:11:40.479Z,56.94
2023-05-20T07:12:40.406Z,56.91
2023-05-20T07:13:40.508Z,56.79
2023-05-20T07:14:40.353Z,56.74
2023-05-20T07:15:40.408Z,56.75
2023-05-20T07:16:40.424Z,56.69
2023-05-20T07:17:40.402Z,56.73
2023-05-20T07:18:40.418Z,56.75
2023-05-20T07:19:40.326Z,56.88
2023-05-20T07:20:40.368Z,56.93
2023-05-20T07:21:40.331Z,56.96
2023-05-20T07:22:40.328Z,56.40
2023-05-20T07:23:40.361Z,56.24
2023-05-20T07:24:40.296Z,56.27
2023-05-20T07:25:40.327Z,56.15
2023-05-20T07:26:40.291Z,56.24
2023-05-20T07:27:40.389Z,56.36
2023-05-20T07:28:40.295Z,56.49
2023-05-20T07:29:40.256Z,56.35
2023-05-20T07:30:40.262Z,56.27
2023-05-20T07:31:40.322Z,56.21
2023-05-20T07:32:40.308Z,56.05
2023-05-20T07:33:40.341Z,55.90
2023-05-20T07:34:40.246Z,55.97
2023-05-20T07:35:40.244Z,55.64
2023-05-20T07:36:40.261Z,55.58
2023-05-20T07:37:40.255Z,55.62
2023-05-20T07:38:41.303Z,55.92
2023-05-20T07:39:40.253Z,55.99
2023-05-20T07:40:40.278Z,55.30
2023-05-20T07:41:40.197Z,55.33
2023-05-20T07:42:40.170Z,55.32
2023-05-20T07:43:40.197Z,55.47
2023-05-20T07:44:40.168Z,55.34
2023-05-20T07:45:40.186Z,55.67
2023-05-20T07:46:40.213Z,55.75
2023-05-20T07:47:40.190Z,55.27
2023-05-20T07:48:40.176Z,55.06
2023-05-20T07:49:40.145Z,55.47
2023-05-20T07:50:40.141Z,56.01
2023-05-20T07:51:40.139Z,56.02
2023-05-20T07:53:40.103Z,56.28
2023-05-20T07:54:40.107Z,56.02
2023-05-20T07:55:40.100Z,55.84
2023-05-20T07:56:40.098Z,55.85
2023-05-20T07:57:40.095Z,55.67
2023-05-20T07:58:40.114Z,55.53
2023-05-20T07:59:40.086Z,55.51
2023-05-20T08:00:40.085Z,55.53
2023-05-20T08:01:40.080Z,55.43
2023-05-20T08:02:40.059Z,55.27
2023-05-20T08:03:40.209Z,54.96
2023-05-20T08:04:40.115Z,55.13
2023-05-20T08:05:40.062Z,55.30
2023-05-20T08:06:40.062Z,55.36
2023-05-20T08:07:40.044Z,55.31
2023-05-20T08:08:40.009Z,54.86
2023-05-20T08:09:40.011Z,54.85
2023-05-20T08:10:40.022Z,54.97
2023-05-20T08:11:39.969Z,54.79
2023-05-20T08:12:39.986Z,54.92
2023-05-20T08:13:40.002Z,54.86
2023-05-20T08:14:40.004Z,54.91
2023-05-20T08:15:40.002Z,55.07
2023-05-20T08:16:40.007Z,54.89
2023-05-20T08:17:39.991Z,54.90
2023-05-20T08:18:40.056Z,55.20
2023-05-20T08:19:39.988Z,55.26
2023-05-20T08:20:40.849Z,54.85
2023-05-20T08:21:39.935Z,54.91
2023-05-20T08:22:39.908Z,54.94
2023-05-20T08:23:40.629Z,55.04
2023-05-20T08:24:39.914Z,55.28
2023-05-20T08:25:39.922Z,55.11
2023-05-20T08:26:39.884Z,55.21
2023-05-20T08:27:39.888Z,55.26
2023-05-20T08:28:39.897Z,55.28
2023-05-20T08:29:39.883Z,54.93
2023-05-20T08:30:39.921Z,54.80
2023-05-20T08:31:40.049Z,54.57
2023-05-20T08:32:39.901Z,54.96
2023-05-20T08:33:39.887Z,54.88
2023-05-20T08:34:39.875Z,54.79
2023-05-20T08:35:39.854Z,54.77
2023-05-20T08:36:39.894Z,54.87
2023-05-20T08:37:39.833Z,54.88
2023-05-20T08:38:39.912Z,54.66
2023-05-20T08:39:39.837Z,54.50
2023-05-20T08:40:39.820Z,54.49
2023-05-20T08:41:39.791Z,54.49
2023-05-20T08:42:39.941Z,54.58
2023-05-20T08:43:39.917Z,53.95
2023-05-20T08:44:39.780Z,53.89
2023-05-20T08:45:39.791Z,54.07
2023-05-20T08:46:39.850Z,54.04
2023-05-20T08:47:39.852Z,53.92
2023-05-20T08:48:39.766Z,53.85
2023-05-20T08:49:39.780Z,53.49
2023-05-20T08:50:39.789Z,53.90
2023-05-20T08:51:39.821Z,53.58
2023-05-20T08:52:54.833Z,53.35
2023-05-20T08:56:31.469Z,53.10
2023-05-20T08:57:19.280Z,52.83
2023-05-20T08:58:19.296Z,52.38
2023-05-20T08:59:19.270Z,52.50
2023-05-20T09:00:19.319Z,52.11
2023-05-20T09:01:19.315Z,52.00
2023-05-20T09:02:19.208Z,52.00
2023-05-20T09:03:19.292Z,51.98
2023-05-20T09:04:19.242Z,52.16
2023-05-20T09:05:19.384Z,51.70
2023-05-20T09:06:19.248Z,51.38
2023-05-20T09:07:19.226Z,51.77
2023-05-20T09:08:19.195Z,51.17
2023-05-20T09:09:19.197Z,51.28
2023-05-20T09:10:19.203Z,51.34
2023-05-20T09:11:19.226Z,50.83
2023-05-20T09:12:19.186Z,50.72
2023-05-20T09:13:19.170Z,50.74
2023-05-20T09:14:19.211Z,50.66
2023-05-20T09:15:19.136Z,50.59
2023-05-20T09:16:19.231Z,50.07
2023-05-20T09:17:19.179Z,49.54
2023-05-20T09:18:19.164Z,50.05
2023-05-20T09:19:20.863Z,49.82
2023-05-20T09:20:19.230Z,49.83
2023-05-20T09:21:19.141Z,49.60
2023-05-20T09:22:19.109Z,50.13
2023-05-20T09:23:19.150Z,49.90
2023-05-20T09:24:19.135Z,50.00
2023-05-20T09:25:19.701Z,49.96
2023-05-20T09:26:19.122Z,50.42
2023-05-20T09:27:19.065Z,50.30
2023-05-20T09:28:19.072Z,50.49
2023-05-20T09:29:19.092Z,49.89
2023-05-20T09:30:19.093Z,50.04
2023-05-20T09:31:19.090Z,50.05
2023-05-20T09:32:19.124Z,49.66
2023-05-20T09:33:19.057Z,49.33
2023-05-20T09:34:19.022Z,49.60
2023-05-20T09:35:19.023Z,49.50
2023-05-20T09:36:19.050Z,49.57
2023-05-20T09:37:19.030Z,49.17
2023-05-20T09:38:19.064Z,48.96
2023-05-20T09:39:19.066Z,49.18
2023-05-20T09:40:19.007Z,49.25
2023-05-20T09:41:18.976Z,49.41
2023-05-20T09:42:18.998Z,49.54
2023-05-20T09:43:30.546Z,49.27
2023-05-20T09:44:33.570Z,49.62
2023-05-20T09:48:08.867Z,49.73
2023-05-20T09:49:10.812Z,49.68
2023-05-20T09:50:08.680Z,49.49
2023-05-20T09:52:19.488Z,48.92
2023-05-20T09:53:29.763Z,48.59
2023-05-20T09:54:29.556Z,48.38
2023-05-20T09:55:18.172Z,48.24
2023-05-20T09:56:30.063Z,48.64
2023-05-20T09:58:37.746Z,47.55
2023-05-20T10:00:57.381Z,47.58
2023-05-20T10:01:57.491Z,47.60
2023-05-20T10:02:57.320Z,47.48
2023-05-20T10:03:57.396Z,47.37
2023-05-20T10:04:57.199Z,46.50
2023-05-20T10:05:57.236Z,46.37
2023-05-20T10:06:57.167Z,46.56
2023-05-20T10:07:57.174Z,46.25
2023-05-20T10:08:57.571Z,45.75
2023-05-20T10:09:57.279Z,45.36
2023-05-20T10:10:57.162Z,44.81
2023-05-20T10:11:57.162Z,44.65
2023-05-20T10:12:57.189Z,44.32
2023-05-20T10:13:57.196Z,43.48
2023-05-20T10:14:57.179Z,43.69
2023-05-20T10:15:57.176Z,43.89
2023-05-20T10:16:57.170Z,44.38
2023-05-20T10:17:57.179Z,45.03
2023-05-20T10:18:57.138Z,45.33
2023-05-20T10:19:57.134Z,45.86
2023-05-20T10:20:57.153Z,46.02
2023-05-20T10:21:57.149Z,45.93
2023-05-20T10:22:57.254Z,45.86
2023-05-20T10:23:57.353Z,45.48
2023-05-20T10:24:57.320Z,45.13
2023-05-20T10:25:57.265Z,45.25
2023-05-20T10:26:57.343Z,45.12
2023-05-20T10:27:57.409Z,45.18
2023-05-20T10:28:58.431Z,44.74
2023-05-20T10:29:57.757Z,44.38
2023-05-20T10:30:57.539Z,43.47
2023-05-20T10:31:57.652Z,42.97
2023-05-20T10:32:57.712Z,42.55
2023-05-20T10:33:57.700Z,42.27
2023-05-20T10:34:57.740Z,42.37
2023-05-20T10:35:57.724Z,42.16
2023-05-20T10:36:57.881Z,41.56
2023-05-20T10:37:57.745Z,41.27
2023-05-20T10:38:57.768Z,40.98
2023-05-20T10:39:57.796Z,41.96
2023-05-20T10:40:57.820Z,42.41
2023-05-20T10:41:57.834Z,42.70
2023-05-20T10:42:57.861Z,42.44
2023-05-20T10:43:57.874Z,41.88
2023-05-20T10:44:57.927Z,42.24
2023-05-20T10:45:57.896Z,41.87
2023-05-20T10:47:16.928Z,40.77
2023-05-20T10:47:59.179Z,40.56
2023-05-20T10:48:58.062Z,39.94
2023-05-20T10:49:57.857Z,40.52
2023-05-20T10:50:57.848Z,41.14
2023-05-20T10:51:57.873Z,41.37
2023-05-20T10:52:57.867Z,42.26
2023-05-20T10:53:57.882Z,40.98
2023-05-20T10:54:57.870Z,40.96
2023-05-20T10:55:57.907Z,41.06
2023-05-20T10:56:57.811Z,40.90
2023-05-20T10:57:57.902Z,40.72
2023-05-20T10:58:57.919Z,40.92
2023-05-20T10:59:57.836Z,40.81
2023-05-20T11:00:58.408Z,40.73
2023-05-20T11:01:57.904Z,40.05
2023-05-20T11:02:58.038Z,40.12
2023-05-20T11:03:58.172Z,40.06
2023-05-20T11:04:58.028Z,39.89
2023-05-20T11:05:58.075Z,38.98
2023-05-20T11:06:58.252Z,38.73
2023-05-20T11:07:58.181Z,39.46
2023-05-20T11:08:58.281Z,38.88
2023-05-20T11:09:58.436Z,38.32
2023-05-20T11:10:58.493Z,37.37
2023-05-20T11:11:58.367Z,37.20
2023-05-20T11:12:58.471Z,37.41
2023-05-20T11:13:58.902Z,37.88
2023-05-20T11:14:58.520Z,38.16
2023-05-20T11:15:58.643Z,38.23
2023-05-20T11:16:58.742Z,38.09
2023-05-20T11:17:58.744Z,38.08
2023-05-20T11:18:58.828Z,37.87
2023-05-20T11:19:58.798Z,38.01
2023-05-20T11:20:58.919Z,37.85
2023-05-20T11:21:58.840Z,37.55
2023-05-20T11:22:58.932Z,37.30
2023-05-20T11:23:59.009Z,37.21
2023-05-20T11:24:59.033Z,35.88
2023-05-20T11:25:59.063Z,35.77
2023-05-20T11:26:59.045Z,35.01
2023-05-20T11:27:59.110Z,35.04
2023-05-20T11:29:01.223Z,34.80
2023-05-20T11:29:59.261Z,35.39
2023-05-20T11:30:59.201Z,35.72
2023-05-20T11:31:59.294Z,35.67
2023-05-20T11:32:59.288Z,35.61
2023-05-20T11:33:59.399Z,35.67
2023-05-20T11:34:59.397Z,35.72
2023-05-20T11:35:59.436Z,35.84
2023-05-20T11:36:59.454Z,35.83
2023-05-20T11:37:59.480Z,35.34
2023-05-20T11:38:59.494Z,35.36
2023-05-20T11:39:59.624Z,35.62
2023-05-20T11:40:59.655Z,35.87
2023-05-20T11:41:59.544Z,35.49
2023-05-20T11:42:59.552Z,34.65
2023-05-20T11:43:59.589Z,34.83
2023-05-20T11:45:01.235Z,35.41
2023-05-20T11:45:59.712Z,34.70
2023-05-20T11:46:59.564Z,34.54
2023-05-20T11:47:59.667Z,34.41
2023-05-20T11:48:59.635Z,33.94
2023-05-20T11:49:59.779Z,33.94
2023-05-20T11:51:02.041Z,34.23
2023-05-20T11:51:59.943Z,34.26
2023-05-20T11:53:00.058Z,34.44
2023-05-20T11:54:00.047Z,34.48
2023-05-20T11:55:00.037Z,34.72
2023-05-20T11:56:00.078Z,35.14
2023-05-20T11:57:00.143Z,35.04
2023-05-20T11:58:00.136Z,35.19
2023-05-20T11:59:00.091Z,34.09
2023-05-20T12:00:00.205Z,34.33
2023-05-20T12:01:09.570Z,34.33
2023-05-20T12:02:01.202Z,34.14
2023-05-20T12:03:00.353Z,34.06
2023-05-20T12:04:00.557Z,33.96
2023-05-20T12:05:00.201Z,33.98
2023-05-20T12:06:00.126Z,33.65
2023-05-20T12:07:00.132Z,33.56
2023-05-20T12:08:00.181Z,33.89
2023-05-20T12:09:00.424Z,34.27
2023-05-20T12:10:00.183Z,34.71
2023-05-20T12:11:00.123Z,34.55
2023-05-20T12:12:00.889Z,33.98
2023-05-20T12:13:00.077Z,34.37
2023-05-20T12:14:00.415Z,34.46
2023-05-20T12:15:00.030Z,33.54
2023-05-20T12:16:00.182Z,33.64
2023-05-20T12:17:00.026Z,33.47
2023-05-20T12:18:00.066Z,33.34
2023-05-20T12:19:00.069Z,33.29
2023-05-20T12:19:59.979Z,33.24
2023-05-20T12:21:00.015Z,34.16
2023-05-20T12:22:00.076Z,34.13
2023-05-20T12:23:00.021Z,34.17
2023-05-20T12:24:00.046Z,33.74
2023-05-20T12:25:00.094Z,34.25
2023-05-20T12:26:00.094Z,34.25
2023-05-20T12:27:00.140Z,34.23
2023-05-20T12:28:00.123Z,34.30
2023-05-20T12:29:00.156Z,34.11
2023-05-20T12:30:00.279Z,34.11
2023-05-20T12:31:00.226Z,33.90
2023-05-20T12:32:00.295Z,34.44
2023-05-20T12:33:00.322Z,34.65
2023-05-20T12:34:00.406Z,34.23
2023-05-20T12:35:00.411Z,33.40
2023-05-20T12:36:00.465Z,34.07
2023-05-20T12:37:00.422Z,34.16
2023-05-20T12:38:00.429Z,34.00
2023-05-20T12:39:00.508Z,34.12
2023-05-20T12:40:00.555Z,34.44
2023-05-20T12:41:00.593Z,34.28
2023-05-20T12:42:00.672Z,34.21
2023-05-20T12:43:00.712Z,34.24
2023-05-20T12:44:00.778Z,34.49
2023-05-20T12:45:00.832Z,34.59
2023-05-20T12:46:00.945Z,34.56
2023-05-20T12:47:01.022Z,34.79
2023-05-20T12:48:00.980Z,35.00
2023-05-20T12:49:01.149Z,35.73
2023-05-20T12:50:01.056Z,35.97
2023-05-20T12:51:01.166Z,35.61
2023-05-20T12:52:03.508Z,35.04
2023-05-20T12:53:01.186Z,35.11
2023-05-20T12:54:01.145Z,35.08
2023-05-20T12:55:01.143Z,34.90
2023-05-20T12:56:01.125Z,34.25
2023-05-20T12:57:01.075Z,33.59
2023-05-20T12:58:01.137Z,33.59
2023-05-20T12:59:01.083Z,32.97
2023-05-20T13:00:01.076Z,33.31
2023-05-20T13:01:13.258Z,33.10
2023-05-20T13:02:01.120Z,33.02
2023-05-20T13:03:01.223Z,33.21